sensor_id;sensor_type;location;lat;lon;timestamp;P1;durP1;ratioP1;P2;durP2;ratioP2
37091;SDS011;23005;51.998;4.502;2022-09-14T00:00:38;6.97;;;1.52;;
37091;SDS011;23005;51.998;4.502;2022-09-14T00:02:29;10.05;;;1.95;;
37091;SDS011;23005;51.998;4.502;2022-09-14T00:04:19;6.13;;;1.50;;
37091;SDS011;23005;51.998;4.502;2022-09-14T00:06:10;8.10;;;1.42;;
37091;SDS011;23005;51.998;4.502;2022-09-14T00:08:02;4.60;;;1.30;;
37091;SDS011;23005;51.998;4.502;2022-09-14T00:09:53;12.85;;;1.55;;
37091;SDS011;23005;51.998;4.502;2022-09-14T00:11:45;6.93;;;1.30;;
37091;SDS011;23005;51.998;4.502;2022-09-14T00:13:35;8.60;;;1.42;;
37091;SDS011;23005;51.998;4.502;2022-09-14T00:15:26;10.60;;;1.77;;
37091;SDS011;23005;51.998;4.502;2022-09-14T00:17:17;4.97;;;1.48;;
37091;SDS011;23005;51.998;4.502;2022-09-14T00:19:12;8.38;;;1.92;;
37091;SDS011;23005;51.998;4.502;2022-09-14T00:21:06;8.40;;;1.42;;
37091;SDS011;23005;51.998;4.502;2022-09-14T00:22:58;8.95;;;1.60;;
37091;SDS011;23005;51.998;4.502;2022-09-14T00:24:49;6.25;;;1.33;;
37091;SDS011;23005;51.998;4.502;2022-09-14T00:26:40;9.43;;;1.35;;
37091;SDS011;23005;51.998;4.502;2022-09-14T00:28:32;8.73;;;1.45;;
37091;SDS011;23005;51.998;4.502;2022-09-14T00:30:26;7.72;;;1.75;;
37091;SDS011;23005;51.998;4.502;2022-09-14T00:32:17;8.35;;;1.60;;
37091;SDS011;23005;51.998;4.502;2022-09-14T00:34:08;7.78;;;1.63;;
37091;SDS011;23005;51.998;4.502;2022-09-14T00:36:03;7.28;;;1.50;;
37091;SDS011;23005;51.998;4.502;2022-09-14T00:37:54;5.35;;;1.40;;
37091;SDS011;23005;51.998;4.502;2022-09-14T00:39:44;8.52;;;1.83;;
37091;SDS011;23005;51.998;4.502;2022-09-14T00:41:39;6.22;;;1.42;;
37091;SDS011;23005;51.998;4.502;2022-09-14T00:45:41;7.95;;;1.98;;
37091;SDS011;23005;51.998;4.502;2022-09-14T00:47:32;7.80;;;1.50;;
37091;SDS011;23005;51.998;4.502;2022-09-14T00:49:24;9.52;;;2.03;;
37091;SDS011;23005;51.998;4.502;2022-09-14T00:51:15;5.68;;;1.40;;
37091;SDS011;23005;51.998;4.502;2022-09-14T00:53:08;5.40;;;1.55;;
37091;SDS011;23005;51.998;4.502;2022-09-14T00:54:59;6.90;;;1.60;;
37091;SDS011;23005;51.998;4.502;2022-09-14T00:56:51;6.20;;;1.50;;
37091;SDS011;23005;51.998;4.502;2022-09-14T00:58:43;7.50;;;1.58;;
37091;SDS011;23005;51.998;4.502;2022-09-14T01:00:36;12.38;;;1.83;;
37091;SDS011;23005;51.998;4.502;2022-09-14T01:02:27;6.30;;;1.40;;
37091;SDS011;23005;51.998;4.502;2022-09-14T01:04:18;5.40;;;1.48;;
37091;SDS011;23005;51.998;4.502;2022-09-14T01:06:09;6.25;;;1.40;;
37091;SDS011;23005;51.998;4.502;2022-09-14T01:08:09;7.00;;;1.50;;
37091;SDS011;23005;51.998;4.502;2022-09-14T01:10:10;7.60;;;1.52;;
37091;SDS011;23005;51.998;4.502;2022-09-14T01:12:10;7.78;;;1.77;;
37091;SDS011;23005;51.998;4.502;2022-09-14T01:14:10;10.55;;;1.75;;
37091;SDS011;23005;51.998;4.502;2022-09-14T01:16:08;13.90;;;1.88;;
37091;SDS011;23005;51.998;4.502;2022-09-14T01:18:02;5.40;;;1.63;;
37091;SDS011;23005;51.998;4.502;2022-09-14T01:20:01;6.65;;;1.90;;
37091;SDS011;23005;51.998;4.502;2022-09-14T01:21:56;8.45;;;1.70;;
37091;SDS011;23005;51.998;4.502;2022-09-14T01:23:55;8.73;;;2.13;;
37091;SDS011;23005;51.998;4.502;2022-09-14T01:25:56;9.25;;;1.80;;
37091;SDS011;23005;51.998;4.502;2022-09-14T01:27:56;15.60;;;2.03;;
37091;SDS011;23005;51.998;4.502;2022-09-14T01:29:55;11.18;;;1.80;;
37091;SDS011;23005;51.998;4.502;2022-09-14T01:31:52;5.93;;;1.63;;
37091;SDS011;23005;51.998;4.502;2022-09-14T01:33:46;9.23;;;1.35;;
37091;SDS011;23005;51.998;4.502;2022-09-14T01:35:41;8.07;;;1.88;;
37091;SDS011;23005;51.998;4.502;2022-09-14T01:37:34;9.18;;;1.77;;
37091;SDS011;23005;51.998;4.502;2022-09-14T01:39:27;6.72;;;1.65;;
37091;SDS011;23005;51.998;4.502;2022-09-14T01:41:19;10.48;;;2.15;;
37091;SDS011;23005;51.998;4.502;2022-09-14T01:43:15;11.85;;;1.70;;
37091;SDS011;23005;51.998;4.502;2022-09-14T01:45:09;9.45;;;2.45;;
37091;SDS011;23005;51.998;4.502;2022-09-14T01:47:03;9.05;;;1.88;;
37091;SDS011;23005;51.998;4.502;2022-09-14T01:49:00;5.18;;;1.48;;
37091;SDS011;23005;51.998;4.502;2022-09-14T01:50:52;8.50;;;1.77;;
37091;SDS011;23005;51.998;4.502;2022-09-14T01:52:46;7.43;;;1.52;;
37091;SDS011;23005;51.998;4.502;2022-09-14T01:54:40;6.43;;;1.90;;
37091;SDS011;23005;51.998;4.502;2022-09-14T01:56:34;9.23;;;1.50;;
37091;SDS011;23005;51.998;4.502;2022-09-14T01:58:29;6.97;;;1.63;;
37091;SDS011;23005;51.998;4.502;2022-09-14T02:00:21;7.53;;;1.73;;
37091;SDS011;23005;51.998;4.502;2022-09-14T02:02:13;14.02;;;1.88;;
37091;SDS011;23005;51.998;4.502;2022-09-14T02:04:07;8.30;;;1.17;;
37091;SDS011;23005;51.998;4.502;2022-09-14T02:06:02;6.25;;;1.50;;
37091;SDS011;23005;51.998;4.502;2022-09-14T02:07:55;6.78;;;1.65;;
37091;SDS011;23005;51.998;4.502;2022-09-14T02:09:46;10.07;;;1.67;;
37091;SDS011;23005;51.998;4.502;2022-09-14T02:11:37;7.28;;;1.80;;
37091;SDS011;23005;51.998;4.502;2022-09-14T02:13:29;8.82;;;1.70;;
37091;SDS011;23005;51.998;4.502;2022-09-14T02:15:20;10.27;;;1.80;;
37091;SDS011;23005;51.998;4.502;2022-09-14T02:17:11;8.95;;;1.50;;
37091;SDS011;23005;51.998;4.502;2022-09-14T02:19:02;4.95;;;1.30;;
37091;SDS011;23005;51.998;4.502;2022-09-14T02:20:53;6.38;;;1.50;;
37091;SDS011;23005;51.998;4.502;2022-09-14T02:22:45;7.35;;;1.40;;
37091;SDS011;23005;51.998;4.502;2022-09-14T02:24:36;15.00;;;1.88;;
37091;SDS011;23005;51.998;4.502;2022-09-14T02:26:27;6.63;;;1.50;;
37091;SDS011;23005;51.998;4.502;2022-09-14T02:28:17;6.80;;;1.67;;
37091;SDS011;23005;51.998;4.502;2022-09-14T02:30:10;8.02;;;1.60;;
37091;SDS011;23005;51.998;4.502;2022-09-14T02:32:07;6.97;;;1.70;;
37091;SDS011;23005;51.998;4.502;2022-09-14T02:34:04;9.50;;;1.70;;
37091;SDS011;23005;51.998;4.502;2022-09-14T02:35:59;7.13;;;1.30;;
37091;SDS011;23005;51.998;4.502;2022-09-14T02:37:53;3.88;;;1.60;;
37091;SDS011;23005;51.998;4.502;2022-09-14T02:39:47;7.40;;;1.70;;
37091;SDS011;23005;51.998;4.502;2022-09-14T02:41:44;6.95;;;1.38;;
37091;SDS011;23005;51.998;4.502;2022-09-14T02:43:40;7.53;;;1.50;;
37091;SDS011;23005;51.998;4.502;2022-09-14T02:45:38;6.78;;;1.90;;
37091;SDS011;23005;51.998;4.502;2022-09-14T02:47:33;10.55;;;2.10;;
37091;SDS011;23005;51.998;4.502;2022-09-14T02:49:32;9.27;;;1.90;;
37091;SDS011;23005;51.998;4.502;2022-09-14T02:51:27;6.75;;;1.40;;
37091;SDS011;23005;51.998;4.502;2022-09-14T02:53:21;8.90;;;1.88;;
37091;SDS011;23005;51.998;4.502;2022-09-14T02:55:15;8.07;;;1.80;;
37091;SDS011;23005;51.998;4.502;2022-09-14T02:57:08;9.38;;;1.95;;
37091;SDS011;23005;51.998;4.502;2022-09-14T02:58:58;10.25;;;1.83;;
37091;SDS011;23005;51.998;4.502;2022-09-14T03:00:50;11.43;;;2.30;;
37091;SDS011;23005;51.998;4.502;2022-09-14T03:02:41;6.63;;;1.52;;
37091;SDS011;23005;51.998;4.502;2022-09-14T03:04:31;12.23;;;2.50;;
37091;SDS011;23005;51.998;4.502;2022-09-14T03:06:22;8.95;;;1.52;;
37091;SDS011;23005;51.998;4.502;2022-09-14T03:08:13;9.88;;;1.80;;
37091;SDS011;23005;51.998;4.502;2022-09-14T03:10:04;13.38;;;2.03;;
37091;SDS011;23005;51.998;4.502;2022-09-14T03:11:54;8.93;;;1.70;;
37091;SDS011;23005;51.998;4.502;2022-09-14T03:13:45;8.27;;;1.95;;
37091;SDS011;23005;51.998;4.502;2022-09-14T03:15:35;6.72;;;1.63;;
37091;SDS011;23005;51.998;4.502;2022-09-14T03:17:27;9.00;;;2.10;;
37091;SDS011;23005;51.998;4.502;2022-09-14T03:19:17;10.50;;;1.77;;
37091;SDS011;23005;51.998;4.502;2022-09-14T03:21:09;5.07;;;1.50;;
37091;SDS011;23005;51.998;4.502;2022-09-14T03:23:00;11.82;;;1.58;;
37091;SDS011;23005;51.998;4.502;2022-09-14T03:24:52;7.38;;;2.05;;
37091;SDS011;23005;51.998;4.502;2022-09-14T03:26:43;10.65;;;1.95;;
37091;SDS011;23005;51.998;4.502;2022-09-14T03:28:33;7.25;;;1.45;;
37091;SDS011;23005;51.998;4.502;2022-09-14T03:30:24;12.30;;;2.00;;
37091;SDS011;23005;51.998;4.502;2022-09-14T03:32:15;6.22;;;1.60;;
37091;SDS011;23005;51.998;4.502;2022-09-14T03:34:08;9.73;;;1.77;;
37091;SDS011;23005;51.998;4.502;2022-09-14T03:35:59;8.32;;;1.48;;
37091;SDS011;23005;51.998;4.502;2022-09-14T03:37:50;8.25;;;2.20;;
37091;SDS011;23005;51.998;4.502;2022-09-14T03:39:40;7.47;;;1.55;;
37091;SDS011;23005;51.998;4.502;2022-09-14T03:41:31;8.75;;;1.50;;
37091;SDS011;23005;51.998;4.502;2022-09-14T03:43:22;7.18;;;1.60;;
37091;SDS011;23005;51.998;4.502;2022-09-14T03:45:13;9.23;;;1.75;;
37091;SDS011;23005;51.998;4.502;2022-09-14T03:47:04;12.80;;;2.13;;
37091;SDS011;23005;51.998;4.502;2022-09-14T03:48:55;8.10;;;1.70;;
37091;SDS011;23005;51.998;4.502;2022-09-14T03:50:46;12.55;;;1.88;;
37091;SDS011;23005;51.998;4.502;2022-09-14T03:52:37;9.10;;;2.30;;
37091;SDS011;23005;51.998;4.502;2022-09-14T03:54:28;6.43;;;1.60;;
37091;SDS011;23005;51.998;4.502;2022-09-14T03:56:19;10.95;;;1.70;;
37091;SDS011;23005;51.998;4.502;2022-09-14T03:58:11;6.75;;;1.60;;
37091;SDS011;23005;51.998;4.502;2022-09-14T04:00:03;7.45;;;1.60;;
37091;SDS011;23005;51.998;4.502;2022-09-14T04:01:54;12.65;;;2.03;;
37091;SDS011;23005;51.998;4.502;2022-09-14T04:03:45;12.00;;;1.88;;
37091;SDS011;23005;51.998;4.502;2022-09-14T04:05:35;11.60;;;1.92;;
37091;SDS011;23005;51.998;4.502;2022-09-14T04:07:27;10.27;;;2.00;;
37091;SDS011;23005;51.998;4.502;2022-09-14T04:09:18;10.98;;;1.50;;
37091;SDS011;23005;51.998;4.502;2022-09-14T04:11:09;6.85;;;1.33;;
37091;SDS011;23005;51.998;4.502;2022-09-14T04:13:00;9.30;;;1.50;;
37091;SDS011;23005;51.998;4.502;2022-09-14T04:14:50;6.97;;;1.38;;
37091;SDS011;23005;51.998;4.502;2022-09-14T04:16:41;8.00;;;1.38;;
37091;SDS011;23005;51.998;4.502;2022-09-14T04:18:31;11.10;;;1.75;;
37091;SDS011;23005;51.998;4.502;2022-09-14T04:20:22;8.98;;;1.70;;
37091;SDS011;23005;51.998;4.502;2022-09-14T04:22:12;7.65;;;1.20;;
37091;SDS011;23005;51.998;4.502;2022-09-14T04:24:05;9.68;;;1.52;;
37091;SDS011;23005;51.998;4.502;2022-09-14T04:26:08;9.32;;;1.58;;
37091;SDS011;23005;51.998;4.502;2022-09-14T04:28:00;9.65;;;1.70;;
37091;SDS011;23005;51.998;4.502;2022-09-14T04:30:09;8.07;;;1.63;;
37091;SDS011;23005;51.998;4.502;2022-09-14T04:32:01;7.32;;;1.48;;
37091;SDS011;23005;51.998;4.502;2022-09-14T04:33:52;5.80;;;1.35;;
37091;SDS011;23005;51.998;4.502;2022-09-14T04:35:44;8.25;;;1.70;;
37091;SDS011;23005;51.998;4.502;2022-09-14T04:37:34;12.68;;;2.60;;
37091;SDS011;23005;51.998;4.502;2022-09-14T04:39:26;11.05;;;2.25;;
37091;SDS011;23005;51.998;4.502;2022-09-14T04:41:17;9.30;;;1.50;;
37091;SDS011;23005;51.998;4.502;2022-09-14T04:43:08;9.80;;;1.70;;
37091;SDS011;23005;51.998;4.502;2022-09-14T04:44:59;6.20;;;1.38;;
37091;SDS011;23005;51.998;4.502;2022-09-14T04:46:49;13.57;;;1.80;;
37091;SDS011;23005;51.998;4.502;2022-09-14T04:48:40;11.70;;;1.92;;
37091;SDS011;23005;51.998;4.502;2022-09-14T04:50:31;8.82;;;1.52;;
37091;SDS011;23005;51.998;4.502;2022-09-14T04:52:21;8.77;;;1.80;;
37091;SDS011;23005;51.998;4.502;2022-09-14T04:54:13;7.10;;;1.48;;
37091;SDS011;23005;51.998;4.502;2022-09-14T04:56:06;10.45;;;1.65;;
37091;SDS011;23005;51.998;4.502;2022-09-14T04:57:58;8.57;;;1.90;;
37091;SDS011;23005;51.998;4.502;2022-09-14T04:59:49;11.35;;;1.80;;
37091;SDS011;23005;51.998;4.502;2022-09-14T05:01:41;13.27;;;1.95;;
37091;SDS011;23005;51.998;4.502;2022-09-14T05:03:32;7.72;;;1.60;;
37091;SDS011;23005;51.998;4.502;2022-09-14T05:05:23;14.95;;;2.13;;
37091;SDS011;23005;51.998;4.502;2022-09-14T05:07:14;8.95;;;2.20;;
37091;SDS011;23005;51.998;4.502;2022-09-14T05:09:05;5.90;;;1.50;;
37091;SDS011;23005;51.998;4.502;2022-09-14T05:10:56;7.13;;;1.90;;
37091;SDS011;23005;51.998;4.502;2022-09-14T05:12:48;10.07;;;1.92;;
37091;SDS011;23005;51.998;4.502;2022-09-14T05:14:39;11.52;;;1.80;;
37091;SDS011;23005;51.998;4.502;2022-09-14T05:16:29;14.43;;;2.08;;
37091;SDS011;23005;51.998;4.502;2022-09-14T05:18:21;9.18;;;2.00;;
37091;SDS011;23005;51.998;4.502;2022-09-14T05:20:12;6.50;;;1.70;;
37091;SDS011;23005;51.998;4.502;2022-09-14T05:22:02;7.65;;;1.98;;
37091;SDS011;23005;51.998;4.502;2022-09-14T05:23:53;11.02;;;1.92;;
37091;SDS011;23005;51.998;4.502;2022-09-14T05:25:50;10.65;;;1.85;;
37091;SDS011;23005;51.998;4.502;2022-09-14T05:27:41;7.97;;;1.75;;
37091;SDS011;23005;51.998;4.502;2022-09-14T05:29:33;12.65;;;2.03;;
37091;SDS011;23005;51.998;4.502;2022-09-14T05:31:25;10.90;;;1.90;;
37091;SDS011;23005;51.998;4.502;2022-09-14T05:33:16;12.20;;;2.38;;
37091;SDS011;23005;51.998;4.502;2022-09-14T05:35:07;16.83;;;2.38;;
37091;SDS011;23005;51.998;4.502;2022-09-14T05:36:58;13.38;;;2.53;;
37091;SDS011;23005;51.998;4.502;2022-09-14T05:38:48;8.18;;;1.77;;
37091;SDS011;23005;51.998;4.502;2022-09-14T05:40:39;13.07;;;2.13;;
37091;SDS011;23005;51.998;4.502;2022-09-14T05:42:30;16.23;;;2.80;;
37091;SDS011;23005;51.998;4.502;2022-09-14T05:44:20;11.98;;;2.20;;
37091;SDS011;23005;51.998;4.502;2022-09-14T05:46:13;11.52;;;2.20;;
37091;SDS011;23005;51.998;4.502;2022-09-14T05:48:04;15.43;;;2.50;;
37091;SDS011;23005;51.998;4.502;2022-09-14T05:49:55;12.43;;;2.40;;
37091;SDS011;23005;51.998;4.502;2022-09-14T05:51:46;6.60;;;2.03;;
37091;SDS011;23005;51.998;4.502;2022-09-14T05:53:36;10.48;;;2.70;;
37091;SDS011;23005;51.998;4.502;2022-09-14T05:55:27;10.00;;;2.20;;
37091;SDS011;23005;51.998;4.502;2022-09-14T05:57:17;11.18;;;2.70;;
37091;SDS011;23005;51.998;4.502;2022-09-14T05:59:07;8.00;;;2.03;;
37091;SDS011;23005;51.998;4.502;2022-09-14T06:01:00;14.32;;;2.72;;
37091;SDS011;23005;51.998;4.502;2022-09-14T06:02:57;8.25;;;1.95;;
37091;SDS011;23005;51.998;4.502;2022-09-14T06:04:47;10.43;;;2.75;;
37091;SDS011;23005;51.998;4.502;2022-09-14T06:06:38;9.10;;;2.08;;
37091;SDS011;23005;51.998;4.502;2022-09-14T06:08:29;12.23;;;2.30;;
37091;SDS011;23005;51.998;4.502;2022-09-14T06:10:19;11.43;;;1.90;;
37091;SDS011;23005;51.998;4.502;2022-09-14T06:12:10;10.30;;;2.20;;
37091;SDS011;23005;51.998;4.502;2022-09-14T06:14:01;14.90;;;2.45;;
37091;SDS011;23005;51.998;4.502;2022-09-14T06:15:52;21.05;;;2.38;;
37091;SDS011;23005;51.998;4.502;2022-09-14T06:17:42;22.98;;;2.72;;
37091;SDS011;23005;51.998;4.502;2022-09-14T06:19:34;16.15;;;2.45;;
37091;SDS011;23005;51.998;4.502;2022-09-14T06:21:26;11.65;;;2.00;;
37091;SDS011;23005;51.998;4.502;2022-09-14T06:23:18;13.82;;;2.17;;
37091;SDS011;23005;51.998;4.502;2022-09-14T06:25:08;12.02;;;2.58;;
37091;SDS011;23005;51.998;4.502;2022-09-14T06:26:59;12.85;;;1.80;;
37091;SDS011;23005;51.998;4.502;2022-09-14T06:28:49;13.32;;;2.35;;
37091;SDS011;23005;51.998;4.502;2022-09-14T06:30:41;10.82;;;2.28;;
37091;SDS011;23005;51.998;4.502;2022-09-14T06:32:32;16.83;;;2.50;;
37091;SDS011;23005;51.998;4.502;2022-09-14T06:34:23;10.57;;;2.50;;
37091;SDS011;23005;51.998;4.502;2022-09-14T06:36:15;30.50;;;3.03;;
37091;SDS011;23005;51.998;4.502;2022-09-14T06:38:07;17.38;;;2.92;;
37091;SDS011;23005;51.998;4.502;2022-09-14T06:39:58;23.15;;;3.17;;
37091;SDS011;23005;51.998;4.502;2022-09-14T06:41:48;11.88;;;2.20;;
37091;SDS011;23005;51.998;4.502;2022-09-14T06:43:39;13.45;;;2.55;;
37091;SDS011;23005;51.998;4.502;2022-09-14T06:45:31;11.55;;;2.50;;
37091;SDS011;23005;51.998;4.502;2022-09-14T06:47:21;12.70;;;2.60;;
37091;SDS011;23005;51.998;4.502;2022-09-14T06:49:12;14.00;;;2.45;;
37091;SDS011;23005;51.998;4.502;2022-09-14T06:51:11;14.90;;;2.50;;
37091;SDS011;23005;51.998;4.502;2022-09-14T06:53:04;13.63;;;2.78;;
37091;SDS011;23005;51.998;4.502;2022-09-14T06:54:54;15.57;;;2.38;;
37091;SDS011;23005;51.998;4.502;2022-09-14T06:56:45;12.90;;;2.30;;
37091;SDS011;23005;51.998;4.502;2022-09-14T06:58:36;8.18;;;2.00;;
37091;SDS011;23005;51.998;4.502;2022-09-14T07:00:26;11.23;;;2.55;;
37091;SDS011;23005;51.998;4.502;2022-09-14T07:02:17;7.93;;;2.03;;
37091;SDS011;23005;51.998;4.502;2022-09-14T07:04:07;9.20;;;1.92;;
37091;SDS011;23005;51.998;4.502;2022-09-14T07:06:02;15.30;;;2.13;;
37091;SDS011;23005;51.998;4.502;2022-09-14T07:07:53;12.85;;;2.70;;
37091;SDS011;23005;51.998;4.502;2022-09-14T07:09:45;7.07;;;1.90;;
37091;SDS011;23005;51.998;4.502;2022-09-14T07:11:36;8.65;;;1.73;;
37091;SDS011;23005;51.998;4.502;2022-09-14T07:13:26;8.52;;;1.83;;
37091;SDS011;23005;51.998;4.502;2022-09-14T07:15:17;9.15;;;1.65;;
37091;SDS011;23005;51.998;4.502;2022-09-14T07:17:08;17.77;;;2.53;;
37091;SDS011;23005;51.998;4.502;2022-09-14T07:18:58;7.97;;;1.67;;
37091;SDS011;23005;51.998;4.502;2022-09-14T07:20:50;8.68;;;1.70;;
37091;SDS011;23005;51.998;4.502;2022-09-14T07:22:41;9.02;;;1.98;;
37091;SDS011;23005;51.998;4.502;2022-09-14T07:24:32;11.05;;;1.67;;
37091;SDS011;23005;51.998;4.502;2022-09-14T07:26:24;11.30;;;1.77;;
37091;SDS011;23005;51.998;4.502;2022-09-14T07:28:16;6.63;;;1.80;;
37091;SDS011;23005;51.998;4.502;2022-09-14T07:30:07;10.80;;;2.03;;
37091;SDS011;23005;51.998;4.502;2022-09-14T07:31:58;11.30;;;2.13;;
37091;SDS011;23005;51.998;4.502;2022-09-14T07:33:50;10.60;;;1.92;;
37091;SDS011;23005;51.998;4.502;2022-09-14T07:35:41;7.45;;;1.58;;
37091;SDS011;23005;51.998;4.502;2022-09-14T07:37:32;10.20;;;2.00;;
37091;SDS011;23005;51.998;4.502;2022-09-14T07:39:22;12.52;;;2.10;;
37091;SDS011;23005;51.998;4.502;2022-09-14T07:41:12;10.55;;;1.70;;
37091;SDS011;23005;51.998;4.502;2022-09-14T07:43:04;10.52;;;1.92;;
37091;SDS011;23005;51.998;4.502;2022-09-14T07:44:55;9.75;;;1.70;;
37091;SDS011;23005;51.998;4.502;2022-09-14T07:46:46;6.60;;;1.70;;
37091;SDS011;23005;51.998;4.502;2022-09-14T07:48:36;10.70;;;2.08;;
37091;SDS011;23005;51.998;4.502;2022-09-14T07:50:27;9.93;;;2.13;;
37091;SDS011;23005;51.998;4.502;2022-09-14T07:52:17;13.70;;;1.80;;
37091;SDS011;23005;51.998;4.502;2022-09-14T07:54:09;6.78;;;2.10;;
37091;SDS011;23005;51.998;4.502;2022-09-14T07:56:01;7.15;;;1.73;;
37091;SDS011;23005;51.998;4.502;2022-09-14T07:57:53;11.13;;;2.30;;
37091;SDS011;23005;51.998;4.502;2022-09-14T07:59:47;10.98;;;2.35;;
37091;SDS011;23005;51.998;4.502;2022-09-14T08:01:37;8.68;;;1.90;;
37091;SDS011;23005;51.998;4.502;2022-09-14T08:03:29;7.55;;;1.95;;
37091;SDS011;23005;51.998;4.502;2022-09-14T08:05:20;9.15;;;1.73;;
37091;SDS011;23005;51.998;4.502;2022-09-14T08:07:11;11.70;;;2.67;;
37091;SDS011;23005;51.998;4.502;2022-09-14T08:09:04;9.10;;;2.95;;
37091;SDS011;23005;51.998;4.502;2022-09-14T08:11:01;8.93;;;2.10;;
37091;SDS011;23005;51.998;4.502;2022-09-14T08:12:53;18.33;;;2.75;;
37091;SDS011;23005;51.998;4.502;2022-09-14T08:14:44;12.38;;;2.65;;
37091;SDS011;23005;51.998;4.502;2022-09-14T08:16:36;11.63;;;2.65;;
37091;SDS011;23005;51.998;4.502;2022-09-14T08:18:28;14.48;;;2.67;;
37091;SDS011;23005;51.998;4.502;2022-09-14T08:20:19;9.63;;;2.85;;
37091;SDS011;23005;51.998;4.502;2022-09-14T08:22:10;12.57;;;2.78;;
37091;SDS011;23005;51.998;4.502;2022-09-14T08:24:01;9.52;;;2.28;;
37091;SDS011;23005;51.998;4.502;2022-09-14T08:25:52;16.27;;;2.78;;
37091;SDS011;23005;51.998;4.502;2022-09-14T08:27:43;10.15;;;2.65;;
37091;SDS011;23005;51.998;4.502;2022-09-14T08:29:33;14.48;;;2.90;;
37091;SDS011;23005;51.998;4.502;2022-09-14T08:31:25;7.72;;;2.60;;
37091;SDS011;23005;51.998;4.502;2022-09-14T08:33:17;10.93;;;2.85;;
37091;SDS011;23005;51.998;4.502;2022-09-14T08:35:08;10.88;;;2.70;;
37091;SDS011;23005;51.998;4.502;2022-09-14T08:36:58;13.23;;;3.78;;
37091;SDS011;23005;51.998;4.502;2022-09-14T08:38:49;11.20;;;2.92;;
37091;SDS011;23005;51.998;4.502;2022-09-14T08:40:42;10.18;;;2.90;;
37091;SDS011;23005;51.998;4.502;2022-09-14T08:42:33;17.27;;;3.40;;
37091;SDS011;23005;51.998;4.502;2022-09-14T08:44:26;9.35;;;3.50;;
37091;SDS011;23005;51.998;4.502;2022-09-14T08:46:20;18.25;;;3.90;;
37091;SDS011;23005;51.998;4.502;2022-09-14T08:48:19;12.80;;;2.97;;
37091;SDS011;23005;51.998;4.502;2022-09-14T08:50:18;13.80;;;2.97;;
37091;SDS011;23005;51.998;4.502;2022-09-14T08:52:20;11.38;;;2.75;;
37091;SDS011;23005;51.998;4.502;2022-09-14T08:54:13;10.45;;;2.75;;
37091;SDS011;23005;51.998;4.502;2022-09-14T08:56:05;10.98;;;2.35;;
37091;SDS011;23005;51.998;4.502;2022-09-14T08:58:00;15.10;;;2.60;;
37091;SDS011;23005;51.998;4.502;2022-09-14T08:59:57;14.63;;;2.65;;
37091;SDS011;23005;51.998;4.502;2022-09-14T09:01:55;13.73;;;2.45;;
37091;SDS011;23005;51.998;4.502;2022-09-14T09:06:12;18.30;;;3.08;;
37091;SDS011;23005;51.998;4.502;2022-09-14T09:08:07;8.82;;;2.80;;
37091;SDS011;23005;51.998;4.502;2022-09-14T09:10:03;11.32;;;2.85;;
37091;SDS011;23005;51.998;4.502;2022-09-14T09:11:54;8.63;;;2.22;;
37091;SDS011;23005;51.998;4.502;2022-09-14T09:13:45;13.75;;;2.60;;
37091;SDS011;23005;51.998;4.502;2022-09-14T09:15:39;9.13;;;2.20;;
37091;SDS011;23005;51.998;4.502;2022-09-14T09:17:32;16.00;;;2.72;;
37091;SDS011;23005;51.998;4.502;2022-09-14T09:19:27;14.45;;;3.58;;
37091;SDS011;23005;51.998;4.502;2022-09-14T09:21:21;14.32;;;2.80;;
37091;SDS011;23005;51.998;4.502;2022-09-14T09:23:15;9.52;;;2.35;;
37091;SDS011;23005;51.998;4.502;2022-09-14T09:25:10;13.68;;;2.08;;
37091;SDS011;23005;51.998;4.502;2022-09-14T09:27:08;8.18;;;1.60;;
37091;SDS011;23005;51.998;4.502;2022-09-14T09:29:00;11.82;;;1.65;;
37091;SDS011;23005;51.998;4.502;2022-09-14T09:30:51;7.63;;;1.35;;
37091;SDS011;23005;51.998;4.502;2022-09-14T09:32:42;7.75;;;1.67;;
37091;SDS011;23005;51.998;4.502;2022-09-14T09:34:34;12.30;;;1.65;;
37091;SDS011;23005;51.998;4.502;2022-09-14T09:36:25;10.90;;;2.08;;
37091;SDS011;23005;51.998;4.502;2022-09-14T09:38:17;8.25;;;1.85;;
37091;SDS011;23005;51.998;4.502;2022-09-14T09:40:12;7.22;;;1.60;;
37091;SDS011;23005;51.998;4.502;2022-09-14T09:42:05;10.40;;;1.98;;
37091;SDS011;23005;51.998;4.502;2022-09-14T09:44:02;8.23;;;2.17;;
37091;SDS011;23005;51.998;4.502;2022-09-14T09:45:55;9.52;;;2.47;;
37091;SDS011;23005;51.998;4.502;2022-09-14T09:47:47;14.20;;;3.05;;
37091;SDS011;23005;51.998;4.502;2022-09-14T09:49:38;13.68;;;3.13;;
37091;SDS011;23005;51.998;4.502;2022-09-14T09:51:29;12.57;;;2.47;;
37091;SDS011;23005;51.998;4.502;2022-09-14T09:53:21;9.07;;;2.08;;
37091;SDS011;23005;51.998;4.502;2022-09-14T09:55:16;11.65;;;2.92;;
37091;SDS011;23005;51.998;4.502;2022-09-14T09:57:17;7.70;;;2.67;;
37091;SDS011;23005;51.998;4.502;2022-09-14T09:59:20;14.43;;;2.40;;
37091;SDS011;23005;51.998;4.502;2022-09-14T10:01:17;9.75;;;2.58;;
37091;SDS011;23005;51.998;4.502;2022-09-14T10:03:23;10.23;;;2.13;;
37091;SDS011;23005;51.998;4.502;2022-09-14T10:05:23;10.88;;;2.53;;
37091;SDS011;23005;51.998;4.502;2022-09-14T10:07:18;11.10;;;2.45;;
37091;SDS011;23005;51.998;4.502;2022-09-14T10:09:11;12.52;;;2.55;;
37091;SDS011;23005;51.998;4.502;2022-09-14T10:12:53;8.38;;;2.08;;
37091;SDS011;23005;51.998;4.502;2022-09-14T10:14:45;8.90;;;1.80;;
37091;SDS011;23005;51.998;4.502;2022-09-14T10:16:37;11.93;;;2.15;;
37091;SDS011;23005;51.998;4.502;2022-09-14T10:18:28;14.02;;;3.40;;
37091;SDS011;23005;51.998;4.502;2022-09-14T10:20:20;11.88;;;2.75;;
37091;SDS011;23005;51.998;4.502;2022-09-14T10:22:15;7.43;;;2.53;;
37091;SDS011;23005;51.998;4.502;2022-09-14T10:24:16;14.23;;;2.60;;
37091;SDS011;23005;51.998;4.502;2022-09-14T10:26:18;10.68;;;2.70;;
37091;SDS011;23005;51.998;4.502;2022-09-14T10:28:17;14.07;;;2.63;;
37091;SDS011;23005;51.998;4.502;2022-09-14T10:30:12;9.52;;;2.88;;
37091;SDS011;23005;51.998;4.502;2022-09-14T10:32:09;9.38;;;2.47;;
37091;SDS011;23005;51.998;4.502;2022-09-14T10:34:06;8.45;;;2.35;;
37091;SDS011;23005;51.998;4.502;2022-09-14T10:36:08;13.82;;;2.47;;
37091;SDS011;23005;51.998;4.502;2022-09-14T10:38:05;8.15;;;1.83;;
37091;SDS011;23005;51.998;4.502;2022-09-14T10:40:09;16.88;;;2.05;;
37091;SDS011;23005;51.998;4.502;2022-09-14T10:42:03;10.77;;;2.05;;
37091;SDS011;23005;51.998;4.502;2022-09-14T10:44:22;7.97;;;1.88;;
37091;SDS011;23005;51.998;4.502;2022-09-14T10:50:52;7.43;;;2.00;;
37091;SDS011;23005;51.998;4.502;2022-09-14T10:52:49;12.48;;;2.83;;
37091;SDS011;23005;51.998;4.502;2022-09-14T10:54:52;10.25;;;2.30;;
37091;SDS011;23005;51.998;4.502;2022-09-14T10:56:57;9.35;;;2.22;;
37091;SDS011;23005;51.998;4.502;2022-09-14T10:58:59;10.70;;;2.50;;
37091;SDS011;23005;51.998;4.502;2022-09-14T11:01:02;9.30;;;2.20;;
37091;SDS011;23005;51.998;4.502;2022-09-14T11:05:18;6.95;;;1.92;;
37091;SDS011;23005;51.998;4.502;2022-09-14T11:07:11;7.80;;;2.40;;
37091;SDS011;23005;51.998;4.502;2022-09-14T11:09:12;11.00;;;2.53;;
37091;SDS011;23005;51.998;4.502;2022-09-14T11:11:14;11.40;;;2.10;;
37091;SDS011;23005;51.998;4.502;2022-09-14T11:13:29;15.65;;;2.65;;
37091;SDS011;23005;51.998;4.502;2022-09-14T11:15:40;11.38;;;2.30;;
37091;SDS011;23005;51.998;4.502;2022-09-14T11:17:46;11.23;;;2.25;;
37091;SDS011;23005;51.998;4.502;2022-09-14T11:19:48;12.18;;;2.05;;
37091;SDS011;23005;51.998;4.502;2022-09-14T11:21:47;6.35;;;1.80;;
37091;SDS011;23005;51.998;4.502;2022-09-14T11:23:44;13.43;;;2.10;;
37091;SDS011;23005;51.998;4.502;2022-09-14T11:25:41;10.18;;;2.10;;
37091;SDS011;23005;51.998;4.502;2022-09-14T11:27:35;8.65;;;2.00;;
37091;SDS011;23005;51.998;4.502;2022-09-14T11:29:29;11.13;;;2.63;;